クェゼリン環礁 の空港の天気 - METARとTAF

バックホルツ陸軍飛行場 ( PKWA / KWA ) - マーシャル諸島 クェゼリン環礁
飛行場実況気象(Metar)
観測時間07/29 15:00 MHT (07/29 03:00 UTC)
風向・風速南東 3m/s
視程10km以上
天気現象
全天の4割程度の雲 雲底高度 2290m
気温28.6℃
湿度78%
気圧1010hPa
METARPKWA 290300Z AUTO 13006KT 10SM SCT075 29/24 A2982 RMK AO2 T02860243
過去の天気等 Google飛行場航空写真 Wunderground天気予報

過去48時間のMETAR

飛行場予報(TAF)
発表時間: 7/29 11:36 MHT (7/28 23:36 UTC)
予報対象時間: 29日12時 MHT ~ 30日12時 MHT
風向・風速南東 5m/s
視程10km以上
天気現象周辺でしゅう雨
全天の4割程度の雲 雲底高度 610m
全天の8割程度の雲 雲底高度 3960m
PKWA 282336Z 2900/2924 13010KT P6SM VCSH SCT020 BKN130